sensor_id;sensor_type;location;lat;lon;timestamp;P1;P2;P0
56360;PMS7003;42611;51.132;13.588;2022-11-04T00:00:02;25.0;24.1;
56360;PMS7003;42611;51.132;13.588;2022-11-04T00:05:01;24.8;23.5;
56360;PMS7003;42611;51.132;13.588;2022-11-04T00:10:01;24.6;23.0;
56360;PMS7003;42611;51.132;13.588;2022-11-04T00:15:02;23.7;22.3;
56360;PMS7003;42611;51.132;13.588;2022-11-04T00:20:01;22.4;21.3;
56360;PMS7003;42611;51.132;13.588;2022-11-04T00:25:01;21.2;19.9;
56360;PMS7003;42611;51.132;13.588;2022-11-04T00:30:03;21.6;20.3;
56360;PMS7003;42611;51.132;13.588;2022-11-04T00:35:01;21.8;20.8;
56360;PMS7003;42611;51.132;13.588;2022-11-04T00:40:01;23.3;21.5;
56360;PMS7003;42611;51.132;13.588;2022-11-04T00:45:03;24.3;22.4;
56360;PMS7003;42611;51.132;13.588;2022-11-04T00:50:01;25.3;23.4;
56360;PMS7003;42611;51.132;13.588;2022-11-04T00:55:02;27.9;25.6;
56360;PMS7003;42611;51.132;13.588;2022-11-04T01:00:02;29.8;26.9;
56360;PMS7003;42611;51.132;13.588;2022-11-04T01:10:02;29.1;26.0;
56360;PMS7003;42611;51.132;13.588;2022-11-04T01:15:02;29.1;26.4;
56360;PMS7003;42611;51.132;13.588;2022-11-04T01:20:01;27.1;25.1;
56360;PMS7003;42611;51.132;13.588;2022-11-04T01:25:01;26.8;25.0;
56360;PMS7003;42611;51.132;13.588;2022-11-04T01:30:02;26.9;25.2;
56360;PMS7003;42611;51.132;13.588;2022-11-04T01:35:01;29.5;27.6;
56360;PMS7003;42611;51.132;13.588;2022-11-04T01:40:02;30.5;28.3;
56360;PMS7003;42611;51.132;13.588;2022-11-04T01:45:02;31.7;29.0;
56360;PMS7003;42611;51.132;13.588;2022-11-04T01:50:04;33.9;29.7;
56360;PMS7003;42611;51.132;13.588;2022-11-04T01:55:04;36.8;31.4;
56360;PMS7003;42611;51.132;13.588;2022-11-04T02:00:05;36.3;31.2;
56360;PMS7003;42611;51.132;13.588;2022-11-04T02:05:01;38.3;32.7;
56360;PMS7003;42611;51.132;13.588;2022-11-04T02:10:02;39.7;33.3;
56360;PMS7003;42611;51.132;13.588;2022-11-04T02:15:02;39.4;33.6;
56360;PMS7003;42611;51.132;13.588;2022-11-04T02:20:19;38.6;33.4;
56360;PMS7003;42611;51.132;13.588;2022-11-04T02:25:03;40.2;33.8;
56360;PMS7003;42611;51.132;13.588;2022-11-04T02:30:06;41.0;33.6;
56360;PMS7003;42611;51.132;13.588;2022-11-04T02:35:40;40.4;33.4;
56360;PMS7003;42611;51.132;13.588;2022-11-04T02:40:07;38.6;32.5;
56360;PMS7003;42611;51.132;13.588;2022-11-04T02:45:20;39.6;32.8;
56360;PMS7003;42611;51.132;13.588;2022-11-04T02:50:07;38.2;32.5;
56360;PMS7003;42611;51.132;13.588;2022-11-04T02:55:03;36.0;31.8;
56360;PMS7003;42611;51.132;13.588;2022-11-04T03:00:06;36.1;31.6;
56360;PMS7003;42611;51.132;13.588;2022-11-04T03:05:02;35.3;30.9;
56360;PMS7003;42611;51.132;13.588;2022-11-04T03:10:04;33.8;30.0;
56360;PMS7003;42611;51.132;13.588;2022-11-04T03:15:06;35.3;30.2;
56360;PMS7003;42611;51.132;13.588;2022-11-04T03:20:02;34.8;30.0;
56360;PMS7003;42611;51.132;13.588;2022-11-04T03:25:02;34.3;30.4;
56360;PMS7003;42611;51.132;13.588;2022-11-04T03:30:10;35.8;31.2;
56360;PMS7003;42611;51.132;13.588;2022-11-04T03:35:01;34.8;31.1;
56360;PMS7003;42611;51.132;13.588;2022-11-04T03:40:02;34.0;30.9;
56360;PMS7003;42611;51.132;13.588;2022-11-04T03:45:02;34.3;31.2;
56360;PMS7003;42611;51.132;13.588;2022-11-04T03:50:12;33.4;30.6;
56360;PMS7003;42611;51.132;13.588;2022-11-04T03:55:02;35.2;31.6;
56360;PMS7003;42611;51.132;13.588;2022-11-04T04:00:17;37.4;32.7;
56360;PMS7003;42611;51.132;13.588;2022-11-04T04:05:02;38.1;33.3;
56360;PMS7003;42611;51.132;13.588;2022-11-04T04:15:12;41.2;34.1;
56360;PMS7003;42611;51.132;13.588;2022-11-04T04:20:03;40.0;34.0;
56360;PMS7003;42611;51.132;13.588;2022-11-04T04:25:05;40.6;34.1;
56360;PMS7003;42611;51.132;13.588;2022-11-04T04:30:07;41.4;34.4;
56360;PMS7003;42611;51.132;13.588;2022-11-04T04:35:01;42.4;35.1;
56360;PMS7003;42611;51.132;13.588;2022-11-04T04:40:01;43.6;36.3;
56360;PMS7003;42611;51.132;13.588;2022-11-04T04:45:04;44.6;36.5;
56360;PMS7003;42611;51.132;13.588;2022-11-04T04:50:01;45.0;37.0;
56360;PMS7003;42611;51.132;13.588;2022-11-04T04:55:01;45.5;37.1;
56360;PMS7003;42611;51.132;13.588;2022-11-04T05:00:04;46.4;38.0;
56360;PMS7003;42611;51.132;13.588;2022-11-04T05:05:02;47.0;38.4;
56360;PMS7003;42611;51.132;13.588;2022-11-04T05:10:02;49.2;40.0;
56360;PMS7003;42611;51.132;13.588;2022-11-04T05:15:02;50.5;40.7;
56360;PMS7003;42611;51.132;13.588;2022-11-04T05:20:02;51.7;42.0;
56360;PMS7003;42611;51.132;13.588;2022-11-04T05:25:02;52.9;42.8;
56360;PMS7003;42611;51.132;13.588;2022-11-04T05:30:02;54.5;43.7;
56360;PMS7003;42611;51.132;13.588;2022-11-04T05:35:02;54.0;43.0;
56360;PMS7003;42611;51.132;13.588;2022-11-04T05:40:02;53.4;42.8;
56360;PMS7003;42611;51.132;13.588;2022-11-04T05:45:03;53.2;42.6;
56360;PMS7003;42611;51.132;13.588;2022-11-04T05:50:02;54.2;43.2;
56360;PMS7003;42611;51.132;13.588;2022-11-04T05:55:02;52.5;41.8;
56360;PMS7003;42611;51.132;13.588;2022-11-04T06:00:03;53.1;42.3;
56360;PMS7003;42611;51.132;13.588;2022-11-04T06:05:02;54.0;42.8;
56360;PMS7003;42611;51.132;13.588;2022-11-04T06:10:02;53.6;42.3;
56360;PMS7003;42611;51.132;13.588;2022-11-04T06:15:02;52.3;41.2;
56360;PMS7003;42611;51.132;13.588;2022-11-04T06:20:02;52.4;41.5;
56360;PMS7003;42611;51.132;13.588;2022-11-04T06:25:01;51.5;41.0;
56360;PMS7003;42611;51.132;13.588;2022-11-04T06:30:03;47.8;38.5;
56360;PMS7003;42611;51.132;13.588;2022-11-04T06:35:01;45.7;37.4;
56360;PMS7003;42611;51.132;13.588;2022-11-04T06:40:02;42.2;35.0;
56360;PMS7003;42611;51.132;13.588;2022-11-04T06:45:02;39.8;33.6;
56360;PMS7003;42611;51.132;13.588;2022-11-04T06:50:01;37.9;32.5;
56360;PMS7003;42611;51.132;13.588;2022-11-04T06:55:02;37.1;32.3;
56360;PMS7003;42611;51.132;13.588;2022-11-04T07:00:02;33.6;29.9;
56360;PMS7003;42611;51.132;13.588;2022-11-04T07:05:01;31.7;28.5;
56360;PMS7003;42611;51.132;13.588;2022-11-04T07:10:01;30.0;27.7;
56360;PMS7003;42611;51.132;13.588;2022-11-04T07:15:02;26.8;25.0;
56360;PMS7003;42611;51.132;13.588;2022-11-04T07:25:01;28.0;26.0;
56360;PMS7003;42611;51.132;13.588;2022-11-04T07:30:02;28.2;26.4;
56360;PMS7003;42611;51.132;13.588;2022-11-04T07:35:02;27.1;25.3;
56360;PMS7003;42611;51.132;13.588;2022-11-04T07:40:02;26.5;25.2;
56360;PMS7003;42611;51.132;13.588;2022-11-04T07:45:02;23.7;22.8;
56360;PMS7003;42611;51.132;13.588;2022-11-04T07:50:12;21.5;20.4;
56360;PMS7003;42611;51.132;13.588;2022-11-04T07:55:01;19.2;17.9;
56360;PMS7003;42611;51.132;13.588;2022-11-04T08:00:03;17.0;16.0;
56360;PMS7003;42611;51.132;13.588;2022-11-04T08:05:02;16.4;15.0;
56360;PMS7003;42611;51.132;13.588;2022-11-04T08:10:01;16.6;14.8;
56360;PMS7003;42611;51.132;13.588;2022-11-04T08:15:03;16.2;14.8;
56360;PMS7003;42611;51.132;13.588;2022-11-04T08:20:01;17.5;15.4;
56360;PMS7003;42611;51.132;13.588;2022-11-04T08:25:02;17.3;15.2;
56360;PMS7003;42611;51.132;13.588;2022-11-04T08:30:02;16.6;15.0;
56360;PMS7003;42611;51.132;13.588;2022-11-04T08:35:02;15.8;14.1;
56360;PMS7003;42611;51.132;13.588;2022-11-04T08:40:02;15.6;14.0;
56360;PMS7003;42611;51.132;13.588;2022-11-04T08:45:02;14.2;13.7;
56360;PMS7003;42611;51.132;13.588;2022-11-04T08:50:01;15.4;14.7;
56360;PMS7003;42611;51.132;13.588;2022-11-04T08:55:01;15.3;14.6;
56360;PMS7003;42611;51.132;13.588;2022-11-04T09:00:03;16.3;16.1;
56360;PMS7003;42611;51.132;13.588;2022-11-04T09:05:02;17.4;17.2;
56360;PMS7003;42611;51.132;13.588;2022-11-04T09:10:02;17.8;17.5;
56360;PMS7003;42611;51.132;13.588;2022-11-04T09:15:03;17.0;16.5;
56360;PMS7003;42611;51.132;13.588;2022-11-04T09:20:02;16.9;16.4;
56360;PMS7003;42611;51.132;13.588;2022-11-04T09:25:02;15.7;15.0;
56360;PMS7003;42611;51.132;13.588;2022-11-04T09:30:04;14.9;14.1;
56360;PMS7003;42611;51.132;13.588;2022-11-04T09:35:01;15.1;13.8;
56360;PMS7003;42611;51.132;13.588;2022-11-04T09:40:02;16.1;14.9;
56360;PMS7003;42611;51.132;13.588;2022-11-04T09:45:26;17.0;15.8;
56360;PMS7003;42611;51.132;13.588;2022-11-04T09:50:02;17.2;16.2;
56360;PMS7003;42611;51.132;13.588;2022-11-04T09:55:08;17.0;16.2;
56360;PMS7003;42611;51.132;13.588;2022-11-04T10:00:03;17.1;16.7;
56360;PMS7003;42611;51.132;13.588;2022-11-04T10:15:22;16.7;16.0;
56360;PMS7003;42611;51.132;13.588;2022-11-04T10:20:09;17.1;15.9;
56360;PMS7003;42611;51.132;13.588;2022-11-04T10:25:15;17.0;15.8;
56360;PMS7003;42611;51.132;13.588;2022-11-04T10:35:14;16.1;15.1;
56360;PMS7003;42611;51.132;13.588;2022-11-04T10:40:06;15.3;14.6;
56360;PMS7003;42611;51.132;13.588;2022-11-04T10:45:03;14.2;13.8;
56360;PMS7003;42611;51.132;13.588;2022-11-04T10:50:20;13.6;13.3;
56360;PMS7003;42611;51.132;13.588;2022-11-04T11:15:24;10.6;10.6;
56360;PMS7003;42611;51.132;13.588;2022-11-04T11:20:05;11.8;11.5;
56360;PMS7003;42611;51.132;13.588;2022-11-04T11:25:34;11.9;11.7;
56360;PMS7003;42611;51.132;13.588;2022-11-04T11:31:02;11.0;10.9;
56360;PMS7003;42611;51.132;13.588;2022-11-04T11:36:03;11.4;11.2;
56360;PMS7003;42611;51.132;13.588;2022-11-04T11:41:16;11.8;11.6;
56360;PMS7003;42611;51.132;13.588;2022-11-04T11:46:01;12.1;11.5;
56360;PMS7003;42611;51.132;13.588;2022-11-04T11:51:01;12.6;11.9;
56360;PMS7003;42611;51.132;13.588;2022-11-04T11:56:09;14.5;13.7;
56360;PMS7003;42611;51.132;13.588;2022-11-04T12:25:19;12.2;11.0;
56360;PMS7003;42611;51.132;13.588;2022-11-04T12:30:09;11.8;11.2;
56360;PMS7003;42611;51.132;13.588;2022-11-04T12:35:17;12.1;11.7;
56360;PMS7003;42611;51.132;13.588;2022-11-04T12:45:22;11.7;11.3;
56360;PMS7003;42611;51.132;13.588;2022-11-04T12:50:03;11.9;11.8;
56360;PMS7003;42611;51.132;13.588;2022-11-04T12:55:10;12.0;11.9;
56360;PMS7003;42611;51.132;13.588;2022-11-04T13:00:18;12.3;12.2;
56360;PMS7003;42611;51.132;13.588;2022-11-04T13:10:07;13.5;13.5;
56360;PMS7003;42611;51.132;13.588;2022-11-04T13:15:23;14.1;13.8;
56360;PMS7003;42611;51.132;13.588;2022-11-04T13:20:02;14.8;14.1;
56360;PMS7003;42611;51.132;13.588;2022-11-04T13:25:06;15.1;14.2;
56360;PMS7003;42611;51.132;13.588;2022-11-04T13:30:16;15.1;13.8;
56360;PMS7003;42611;51.132;13.588;2022-11-04T13:35:06;15.6;14.4;
56360;PMS7003;42611;51.132;13.588;2022-11-04T13:40:40;15.8;14.5;
56360;PMS7003;42611;51.132;13.588;2022-11-04T13:45:10;15.4;14.5;
56360;PMS7003;42611;51.132;13.588;2022-11-04T13:50:02;15.5;14.3;
56360;PMS7003;42611;51.132;13.588;2022-11-04T13:55:02;16.0;15.0;
56360;PMS7003;42611;51.132;13.588;2022-11-04T14:00:19;15.6;14.5;
56360;PMS7003;42611;51.132;13.588;2022-11-04T14:05:20;14.8;13.9;
56360;PMS7003;42611;51.132;13.588;2022-11-04T14:10:01;15.6;14.4;
56360;PMS7003;42611;51.132;13.588;2022-11-04T14:15:07;15.8;15.1;
56360;PMS7003;42611;51.132;13.588;2022-11-04T14:25:16;16.9;16.0;
56360;PMS7003;42611;51.132;13.588;2022-11-04T14:30:02;17.7;16.7;
56360;PMS7003;42611;51.132;13.588;2022-11-04T14:35:03;17.6;16.2;
56360;PMS7003;42611;51.132;13.588;2022-11-04T14:40:04;17.9;16.4;
56360;PMS7003;42611;51.132;13.588;2022-11-04T14:45:02;17.5;15.9;
56360;PMS7003;42611;51.132;13.588;2022-11-04T14:50:02;17.6;15.8;
56360;PMS7003;42611;51.132;13.588;2022-11-04T14:55:03;18.8;16.5;
56360;PMS7003;42611;51.132;13.588;2022-11-04T15:00:21;20.6;18.3;
56360;PMS7003;42611;51.132;13.588;2022-11-04T15:05:01;21.2;18.6;
56360;PMS7003;42611;51.132;13.588;2022-11-04T15:10:13;20.8;18.2;
56360;PMS7003;42611;51.132;13.588;2022-11-04T15:15:24;21.3;19.0;
56360;PMS7003;42611;51.132;13.588;2022-11-04T15:20:02;20.8;19.0;
56360;PMS7003;42611;51.132;13.588;2022-11-04T15:25:02;19.4;18.1;
56360;PMS7003;42611;51.132;13.588;2022-11-04T15:30:03;18.8;18.0;
56360;PMS7003;42611;51.132;13.588;2022-11-04T15:35:01;20.8;20.3;
56360;PMS7003;42611;51.132;13.588;2022-11-04T15:40:02;25.5;24.0;
56360;PMS7003;42611;51.132;13.588;2022-11-04T15:45:26;30.3;27.0;
56360;PMS7003;42611;51.132;13.588;2022-11-04T15:50:02;33.2;29.2;
56360;PMS7003;42611;51.132;13.588;2022-11-04T15:55:02;34.5;30.4;
56360;PMS7003;42611;51.132;13.588;2022-11-04T16:00:08;34.7;30.2;
56360;PMS7003;42611;51.132;13.588;2022-11-04T16:05:05;31.0;27.8;
56360;PMS7003;42611;51.132;13.588;2022-11-04T16:10:29;29.0;26.8;
56360;PMS7003;42611;51.132;13.588;2022-11-04T16:15:02;29.8;27.8;
56360;PMS7003;42611;51.132;13.588;2022-11-04T16:20:03;33.3;29.8;
56360;PMS7003;42611;51.132;13.588;2022-11-04T16:25:02;35.6;31.7;
56360;PMS7003;42611;51.132;13.588;2022-11-04T16:30:17;37.2;32.2;
56360;PMS7003;42611;51.132;13.588;2022-11-04T16:35:04;35.8;31.5;
56360;PMS7003;42611;51.132;13.588;2022-11-04T16:40:02;34.9;30.7;
56360;PMS7003;42611;51.132;13.588;2022-11-04T16:45:22;30.3;27.6;
56360;PMS7003;42611;51.132;13.588;2022-11-04T16:50:07;27.2;25.1;
56360;PMS7003;42611;51.132;13.588;2022-11-04T16:55:01;24.0;22.5;
56360;PMS7003;42611;51.132;13.588;2022-11-04T17:00:03;22.8;21.3;
56360;PMS7003;42611;51.132;13.588;2022-11-04T17:05:02;19.5;18.5;
56360;PMS7003;42611;51.132;13.588;2022-11-04T17:10:03;20.2;18.9;
56360;PMS7003;42611;51.132;13.588;2022-11-04T17:15:02;20.4;18.9;
56360;PMS7003;42611;51.132;13.588;2022-11-04T17:25:02;19.9;19.0;
56360;PMS7003;42611;51.132;13.588;2022-11-04T17:30:02;20.6;19.3;
56360;PMS7003;42611;51.132;13.588;2022-11-04T17:35:01;20.5;19.2;
56360;PMS7003;42611;51.132;13.588;2022-11-04T17:40:02;21.8;20.0;
56360;PMS7003;42611;51.132;13.588;2022-11-04T17:45:02;22.2;20.3;
56360;PMS7003;42611;51.132;13.588;2022-11-04T17:50:02;21.9;20.1;
56360;PMS7003;42611;51.132;13.588;2022-11-04T18:00:02;22.8;20.8;
56360;PMS7003;42611;51.132;13.588;2022-11-04T18:05:01;22.3;20.8;
56360;PMS7003;42611;51.132;13.588;2022-11-04T18:10:01;22.2;20.5;
56360;PMS7003;42611;51.132;13.588;2022-11-04T18:15:04;23.4;21.6;
56360;PMS7003;42611;51.132;13.588;2022-11-04T18:20:01;24.6;23.2;
56360;PMS7003;42611;51.132;13.588;2022-11-04T18:25:02;25.0;23.4;
56360;PMS7003;42611;51.132;13.588;2022-11-04T18:30:02;23.8;22.6;
56360;PMS7003;42611;51.132;13.588;2022-11-04T18:35:01;24.6;23.0;
56360;PMS7003;42611;51.132;13.588;2022-11-04T18:40:01;25.1;23.2;
56360;PMS7003;42611;51.132;13.588;2022-11-04T18:45:02;24.6;22.8;
56360;PMS7003;42611;51.132;13.588;2022-11-04T18:50:01;23.6;21.9;
56360;PMS7003;42611;51.132;13.588;2022-11-04T18:55:02;26.5;24.3;
56360;PMS7003;42611;51.132;13.588;2022-11-04T19:00:03;30.3;27.3;
56360;PMS7003;42611;51.132;13.588;2022-11-04T19:05:02;32.3;29.1;
56360;PMS7003;42611;51.132;13.588;2022-11-04T19:10:02;33.3;29.6;
56360;PMS7003;42611;51.132;13.588;2022-11-04T19:15:02;34.3;30.6;
56360;PMS7003;42611;51.132;13.588;2022-11-04T19:20:13;32.4;28.9;
56360;PMS7003;42611;51.132;13.588;2022-11-04T19:25:01;29.2;26.3;
56360;PMS7003;42611;51.132;13.588;2022-11-04T19:30:02;29.5;26.7;
56360;PMS7003;42611;51.132;13.588;2022-11-04T19:35:01;31.2;28.1;
56360;PMS7003;42611;51.132;13.588;2022-11-04T19:40:02;32.2;28.9;
56360;PMS7003;42611;51.132;13.588;2022-11-04T19:45:02;35.6;31.2;
56360;PMS7003;42611;51.132;13.588;2022-11-04T19:50:01;36.9;32.4;
56360;PMS7003;42611;51.132;13.588;2022-11-04T19:55:01;35.0;30.6;
56360;PMS7003;42611;51.132;13.588;2022-11-04T20:00:08;34.7;30.6;
56360;PMS7003;42611;51.132;13.588;2022-11-04T20:05:01;34.8;30.6;
56360;PMS7003;42611;51.132;13.588;2022-11-04T20:10:01;34.2;30.5;
56360;PMS7003;42611;51.132;13.588;2022-11-04T20:15:02;33.7;30.3;
56360;PMS7003;42611;51.132;13.588;2022-11-04T20:20:02;36.6;31.8;
56360;PMS7003;42611;51.132;13.588;2022-11-04T20:25:01;35.9;31.4;
56360;PMS7003;42611;51.132;13.588;2022-11-04T20:30:02;35.6;31.0;
56360;PMS7003;42611;51.132;13.588;2022-11-04T20:35:01;35.2;31.0;
56360;PMS7003;42611;51.132;13.588;2022-11-04T20:40:03;34.7;30.7;
56360;PMS7003;42611;51.132;13.588;2022-11-04T20:45:02;31.4;29.2;
56360;PMS7003;42611;51.132;13.588;2022-11-04T20:50:02;31.9;29.2;
56360;PMS7003;42611;51.132;13.588;2022-11-04T20:55:03;32.5;29.4;
56360;PMS7003;42611;51.132;13.588;2022-11-04T21:00:03;32.8;29.0;
56360;PMS7003;42611;51.132;13.588;2022-11-04T21:05:02;33.3;29.5;
56360;PMS7003;42611;51.132;13.588;2022-11-04T21:10:02;34.2;30.2;
56360;PMS7003;42611;51.132;13.588;2022-11-04T21:15:03;34.1;30.1;
56360;PMS7003;42611;51.132;13.588;2022-11-04T21:20:01;33.5;29.8;
56360;PMS7003;42611;51.132;13.588;2022-11-04T21:25:02;33.2;29.7;
56360;PMS7003;42611;51.132;13.588;2022-11-04T21:30:02;33.5;30.0;
56360;PMS7003;42611;51.132;13.588;2022-11-04T21:35:01;34.2;30.4;
56360;PMS7003;42611;51.132;13.588;2022-11-04T21:40:02;33.6;30.3;
56360;PMS7003;42611;51.132;13.588;2022-11-04T21:45:02;32.5;29.4;
56360;PMS7003;42611;51.132;13.588;2022-11-04T21:50:01;30.1;27.7;
56360;PMS7003;42611;51.132;13.588;2022-11-04T21:55:02;28.5;26.3;
56360;PMS7003;42611;51.132;13.588;2022-11-04T22:00:08;26.5;23.9;
56360;PMS7003;42611;51.132;13.588;2022-11-04T22:05:01;24.4;21.6;
56360;PMS7003;42611;51.132;13.588;2022-11-04T22:10:02;22.7;20.2;
56360;PMS7003;42611;51.132;13.588;2022-11-04T22:15:02;22.4;20.2;
56360;PMS7003;42611;51.132;13.588;2022-11-04T22:20:02;22.0;20.0;
56360;PMS7003;42611;51.132;13.588;2022-11-04T22:25:01;22.9;21.3;
56360;PMS7003;42611;51.132;13.588;2022-11-04T22:30:02;23.4;22.0;
56360;PMS7003;42611;51.132;13.588;2022-11-04T22:35:01;24.6;22.7;
56360;PMS7003;42611;51.132;13.588;2022-11-04T22:40:02;24.8;22.6;
56360;PMS7003;42611;51.132;13.588;2022-11-04T22:45:03;25.5;22.5;
56360;PMS7003;42611;51.132;13.588;2022-11-04T22:50:01;25.8;22.5;
56360;PMS7003;42611;51.132;13.588;2022-11-04T22:55:01;25.5;22.1;
56360;PMS7003;42611;51.132;13.588;2022-11-04T23:00:05;25.4;21.8;
56360;PMS7003;42611;51.132;13.588;2022-11-04T23:05:01;25.0;21.3;
56360;PMS7003;42611;51.132;13.588;2022-11-04T23:10:01;23.7;21.0;
56360;PMS7003;42611;51.132;13.588;2022-11-04T23:15:02;22.2;20.0;
56360;PMS7003;42611;51.132;13.588;2022-11-04T23:20:03;23.1;21.0;
56360;PMS7003;42611;51.132;13.588;2022-11-04T23:25:02;23.4;21.3;
56360;PMS7003;42611;51.132;13.588;2022-11-04T23:30:05;23.8;21.8;
56360;PMS7003;42611;51.132;13.588;2022-11-04T23:35:01;24.4;22.1;
56360;PMS7003;42611;51.132;13.588;2022-11-04T23:40:01;24.1;21.8;
56360;PMS7003;42611;51.132;13.588;2022-11-04T23:45:02;22.9;20.6;
56360;PMS7003;42611;51.132;13.588;2022-11-04T23:50:02;23.3;20.9;
56360;PMS7003;42611;51.132;13.588;2022-11-04T23:55:02;23.2;20.6;
